Main page
METAR-TAF:

METAR-TAF

Airports :

El Nouzha Airport

Alexandria-El Nouzha, Egypt

latitude: 31-12N, longitude: 029-57E, elevation: -2 m

Current weather observation

The report was made 36 minutes ago, at 19:00 UTC
Wind 10 kt from the North/Northwest
Temperature 26°C
Humidity 58%
Pressure 1014 hPa
Visibility 10 km or more
Scattered clouds at a height of 2000 ft

METAR: HEAX 161900Z 33010KT 9999 SCT020 26/17 Q1014 NOSIG

Time: 21:36 (19:36 UTC)

Forecast

The report was made 2 hours and 36 minutes ago, at 17:00 UTC
Forecast valid from 16 at 18 UTC to 17 at 24 UTC
Wind 12 kt from the North/Northwest
Visibility 10 km or more
Scattered clouds at a height of 2000 ft

TAF: HEAX 161700Z 1618/1724 33012KT 9999 SCT020

Weather observations and forecasts of more than 4000 airports (METAR and TAF reports).

The available stations are represented by yellow and red dots on the map.

Hover mouse over dot to see the name of the station.

Then click to see weather observations and forecasts.

To change the map : click on the green buttons with a black cross to zoom in, on the green button with a dash to zoom out, or on the green arrows for adjacent maps.


METAR-TAF: